createdAt,value
2023-05-06T00:00:44.899Z,28.81
2023-05-06T00:01:44.979Z,28.83
2023-05-06T00:02:45.185Z,28.80
2023-05-06T00:03:45.379Z,28.80
2023-05-06T00:04:45.279Z,28.77
2023-05-06T00:05:45.302Z,28.88
2023-05-06T00:06:45.407Z,28.84
2023-05-06T00:07:45.512Z,28.79
2023-05-06T00:08:45.591Z,28.84
2023-05-06T00:09:45.675Z,28.84
2023-05-06T00:10:45.795Z,28.91
2023-05-06T00:11:45.868Z,28.85
2023-05-06T00:12:46.045Z,28.85
2023-05-06T00:13:45.972Z,28.91
2023-05-06T00:14:46.001Z,28.83
2023-05-06T00:15:46.034Z,28.81
2023-05-06T00:16:46.126Z,28.87
2023-05-06T00:17:46.115Z,28.83
2023-05-06T00:18:46.103Z,28.89
2023-05-06T00:19:46.125Z,28.89
2023-05-06T00:20:46.162Z,28.87
2023-05-06T00:21:46.193Z,28.86
2023-05-06T00:22:46.283Z,28.91
2023-05-06T00:23:46.349Z,28.94
2023-05-06T00:24:46.441Z,28.92
2023-05-06T00:25:46.524Z,28.93
2023-05-06T00:26:46.638Z,28.86
2023-05-06T00:27:46.696Z,28.90
2023-05-06T00:28:46.785Z,28.90
2023-05-06T00:29:46.893Z,28.88
2023-05-06T00:30:46.949Z,28.94
2023-05-06T00:31:47.101Z,28.89
2023-05-06T00:32:47.152Z,28.97
2023-05-06T00:33:47.253Z,28.92
2023-05-06T00:34:47.359Z,28.89
2023-05-06T00:35:47.466Z,28.93
2023-05-06T00:36:47.531Z,28.92
2023-05-06T00:37:47.611Z,28.89
2023-05-06T00:38:47.669Z,28.91
2023-05-06T00:39:47.747Z,28.90
2023-05-06T00:40:47.815Z,28.85
2023-05-06T00:41:47.981Z,28.93
2023-05-06T00:42:47.927Z,28.88
2023-05-06T00:43:48.008Z,28.90
2023-05-06T00:44:48.069Z,28.97
2023-05-06T00:45:48.142Z,28.98
2023-05-06T00:46:48.204Z,28.87
2023-05-06T00:47:48.341Z,29.01
2023-05-06T00:48:48.387Z,28.95
2023-05-06T00:49:48.480Z,28.93
2023-05-06T00:50:48.515Z,28.93
2023-05-06T00:51:48.593Z,28.96
2023-05-06T00:52:48.690Z,29.01
2023-05-06T00:53:48.773Z,28.98
2023-05-06T00:54:48.832Z,28.95
2023-05-06T00:55:48.925Z,28.94
2023-05-06T00:56:49.007Z,29.01
2023-05-06T00:57:49.217Z,28.97
2023-05-06T00:58:49.167Z,28.97
2023-05-06T00:59:49.245Z,28.94
2023-05-06T01:00:49.334Z,28.97
2023-05-06T01:01:49.359Z,28.99
2023-05-06T01:02:49.579Z,29.03
2023-05-06T01:03:49.624Z,28.99
2023-05-06T01:04:49.609Z,28.99
2023-05-06T01:05:49.657Z,28.97
2023-05-06T01:06:49.703Z,29.01
2023-05-06T01:07:49.799Z,28.99
2023-05-06T01:08:49.841Z,28.98
2023-05-06T01:09:49.906Z,28.99
2023-05-06T01:10:50.005Z,29.01
2023-05-06T01:11:50.087Z,29.03
2023-05-06T01:12:50.194Z,29.01
2023-05-06T01:13:50.230Z,28.98
2023-05-06T01:14:50.270Z,28.97
2023-05-06T01:15:50.359Z,29.03
2023-05-06T01:16:50.494Z,28.99
2023-05-06T01:17:50.589Z,29.02
2023-05-06T01:18:50.540Z,29.03
2023-05-06T01:19:50.655Z,28.95
2023-05-06T01:20:50.649Z,29.01
2023-05-06T01:21:50.695Z,29.02
2023-05-06T01:22:50.760Z,28.99
2023-05-06T01:23:50.793Z,28.94
2023-05-06T01:24:50.849Z,28.94
2023-05-06T01:25:50.910Z,28.96
2023-05-06T01:26:50.978Z,29.03
2023-05-06T01:27:51.044Z,28.97
2023-05-06T01:28:51.054Z,28.96
2023-05-06T01:29:51.176Z,28.95
2023-05-06T01:30:51.168Z,28.99
2023-05-06T01:31:51.201Z,28.94
2023-05-06T01:32:51.255Z,28.99
2023-05-06T01:33:51.256Z,28.97
2023-05-06T01:34:51.290Z,28.95
2023-05-06T01:35:51.332Z,28.99
2023-05-06T01:36:51.385Z,28.96
2023-05-06T01:37:51.428Z,28.95
2023-05-06T01:38:51.514Z,28.95
2023-05-06T01:39:51.593Z,28.98
2023-05-06T01:40:51.616Z,28.92
2023-05-06T01:41:51.663Z,28.95
2023-05-06T01:42:51.729Z,28.95
2023-05-06T01:43:51.779Z,29.03
2023-05-06T01:44:51.837Z,28.95
2023-05-06T01:45:52.000Z,28.95
2023-05-06T01:46:51.938Z,28.99
2023-05-06T01:47:52.019Z,28.91
2023-05-06T01:48:52.041Z,28.99
2023-05-06T01:49:52.072Z,28.95
2023-05-06T01:50:52.125Z,28.96
2023-05-06T01:51:52.163Z,28.95
2023-05-06T01:52:52.197Z,28.96
2023-05-06T01:53:52.255Z,28.92
2023-05-06T01:54:52.283Z,28.92
2023-05-06T01:55:52.329Z,28.95
2023-05-06T01:56:52.379Z,28.95
2023-05-06T01:57:52.414Z,28.92
2023-05-06T01:58:52.438Z,28.97
2023-05-06T01:59:52.465Z,28.99
2023-05-06T02:00:52.484Z,28.95
2023-05-06T02:01:52.560Z,28.98
2023-05-06T02:02:52.673Z,28.99
2023-05-06T02:03:52.998Z,28.94
2023-05-06T02:04:52.609Z,28.96
2023-05-06T02:05:52.639Z,28.97
2023-05-06T02:06:52.718Z,28.94
2023-05-06T02:07:52.701Z,28.96
2023-05-06T02:08:52.729Z,28.96
2023-05-06T02:09:52.747Z,28.96
2023-05-06T02:10:52.778Z,28.93
2023-05-06T02:11:52.800Z,29.01
2023-05-06T02:12:52.870Z,28.94
2023-05-06T02:13:52.857Z,28.96
2023-05-06T02:14:52.873Z,28.98
2023-05-06T02:15:52.962Z,28.94
2023-05-06T02:16:52.935Z,28.96
2023-05-06T02:17:53.108Z,28.92
2023-05-06T02:18:52.987Z,28.99
2023-05-06T02:19:53.011Z,28.99
2023-05-06T02:20:53.082Z,28.96
2023-05-06T02:21:53.072Z,28.96
2023-05-06T02:22:53.115Z,28.97
2023-05-06T02:23:53.152Z,28.96
2023-05-06T02:24:53.259Z,28.98
2023-05-06T02:25:53.189Z,29.00
2023-05-06T02:26:53.219Z,29.00
2023-05-06T02:27:53.382Z,28.98
2023-05-06T02:28:53.283Z,28.96
2023-05-06T02:29:53.321Z,28.96
2023-05-06T02:30:53.339Z,29.00
2023-05-06T02:31:53.402Z,28.97
2023-05-06T02:32:53.480Z,28.97
2023-05-06T02:33:53.502Z,28.97
2023-05-06T02:34:53.489Z,28.98
2023-05-06T02:35:53.503Z,28.97
2023-05-06T02:36:53.534Z,29.01
2023-05-06T02:37:53.570Z,29.00
2023-05-06T02:38:53.604Z,28.97
2023-05-06T02:39:53.640Z,28.99
2023-05-06T02:40:53.726Z,28.94
2023-05-06T02:41:53.714Z,28.96
2023-05-06T02:42:53.801Z,28.93
2023-05-06T02:43:53.787Z,28.95
2023-05-06T02:44:53.867Z,28.94
2023-05-06T02:45:53.883Z,28.97
2023-05-06T02:46:53.870Z,28.98
2023-05-06T02:47:53.955Z,28.91
2023-05-06T02:48:53.927Z,28.97
2023-05-06T02:49:53.999Z,28.97
2023-05-06T02:50:54.003Z,29.00
2023-05-06T02:51:54.040Z,28.98
2023-05-06T02:52:54.063Z,28.97
2023-05-06T02:53:54.118Z,29.01
2023-05-06T02:54:54.138Z,28.99
2023-05-06T02:55:54.169Z,28.99
2023-05-06T02:56:54.206Z,28.98
2023-05-06T02:57:54.269Z,29.04
2023-05-06T02:58:54.257Z,28.99
2023-05-06T02:59:54.289Z,28.98
2023-05-06T03:00:54.452Z,29.05
2023-05-06T03:01:54.363Z,29.01
2023-05-06T03:02:54.419Z,28.99
2023-05-06T03:03:54.451Z,29.01
2023-05-06T03:04:54.454Z,29.01
2023-05-06T03:05:54.570Z,29.03
2023-05-06T03:06:54.528Z,29.02
2023-05-06T03:07:54.574Z,29.01
2023-05-06T03:08:54.593Z,29.03
2023-05-06T03:09:54.625Z,28.96
2023-05-06T03:10:54.676Z,29.06
2023-05-06T03:11:54.742Z,29.01
2023-05-06T03:12:54.776Z,29.00
2023-05-06T03:13:54.749Z,29.03
2023-05-06T03:14:54.786Z,29.02
2023-05-06T03:15:54.824Z,28.99
2023-05-06T03:16:54.882Z,28.98
2023-05-06T03:17:54.909Z,29.03
2023-05-06T03:18:54.934Z,29.02
2023-05-06T03:19:54.939Z,29.05
2023-05-06T03:20:54.980Z,29.03
2023-05-06T03:21:55.169Z,29.05
2023-05-06T03:22:55.050Z,29.03
2023-05-06T03:23:55.098Z,29.07
2023-05-06T03:24:55.115Z,29.06
2023-05-06T03:25:55.152Z,29.05
2023-05-06T03:26:55.181Z,29.06
2023-05-06T03:27:55.251Z,28.99
2023-05-06T03:28:55.252Z,29.06
2023-05-06T03:29:55.288Z,29.05
2023-05-06T03:30:55.308Z,29.06
2023-05-06T03:31:55.433Z,29.07
2023-05-06T03:32:55.413Z,29.10
2023-05-06T03:33:55.422Z,29.04
2023-05-06T03:34:55.451Z,29.12
2023-05-06T03:35:55.494Z,29.10
2023-05-06T03:36:55.524Z,29.06
2023-05-06T03:37:55.583Z,29.08
2023-05-06T03:38:55.591Z,29.07
2023-05-06T03:39:55.635Z,29.08
2023-05-06T03:40:55.689Z,29.08
2023-05-06T03:41:55.719Z,29.05
2023-05-06T03:42:55.754Z,29.04
2023-05-06T03:43:55.798Z,29.03
2023-05-06T03:44:55.813Z,29.00
2023-05-06T03:45:55.876Z,29.10
2023-05-06T03:46:55.881Z,29.08
2023-05-06T03:47:57.230Z,29.12
2023-05-06T03:48:55.956Z,29.10
2023-05-06T03:49:56.017Z,29.11
2023-05-06T03:50:56.032Z,29.08
2023-05-06T03:51:56.062Z,29.09
2023-05-06T03:52:56.122Z,29.13
2023-05-06T03:53:56.274Z,29.10
2023-05-06T03:54:56.182Z,29.15
2023-05-06T03:55:56.226Z,29.15
2023-05-06T03:56:56.268Z,29.13
2023-05-06T03:57:56.316Z,29.12
2023-05-06T03:58:56.340Z,29.11
2023-05-06T03:59:56.379Z,29.15
2023-05-06T04:00:56.421Z,29.12
2023-05-06T04:01:56.522Z,29.16
2023-05-06T04:02:56.565Z,29.12
2023-05-06T04:03:56.604Z,29.09
2023-05-06T04:04:56.589Z,29.11
2023-05-06T04:05:56.626Z,29.11
2023-05-06T04:06:56.673Z,29.12
2023-05-06T04:07:56.702Z,29.11
2023-05-06T04:08:56.739Z,29.13
2023-05-06T04:09:56.869Z,29.16
2023-05-06T04:10:56.807Z,29.16
2023-05-06T04:11:56.853Z,29.19
2023-05-06T04:12:56.921Z,29.12
2023-05-06T04:13:56.903Z,29.15
2023-05-06T04:14:56.947Z,29.13
2023-05-06T04:15:56.994Z,29.09
2023-05-06T04:16:57.002Z,29.13
2023-05-06T04:17:57.065Z,29.13
2023-05-06T04:18:57.060Z,29.11
2023-05-06T04:19:57.091Z,29.12
2023-05-06T04:20:57.157Z,29.09
2023-05-06T04:21:57.160Z,29.12
2023-05-06T04:22:57.200Z,29.16
2023-05-06T04:23:57.243Z,29.11
2023-05-06T04:24:57.265Z,29.12
2023-05-06T04:25:57.418Z,29.11
2023-05-06T04:26:57.342Z,29.11
2023-05-06T04:27:57.384Z,29.13
2023-05-06T04:28:57.411Z,29.12
2023-05-06T04:29:57.455Z,29.13
2023-05-06T04:30:57.483Z,29.13
2023-05-06T04:31:57.573Z,29.12
2023-05-06T04:32:57.585Z,29.09
2023-05-06T04:33:57.597Z,29.11
2023-05-06T04:34:57.633Z,29.09
2023-05-06T04:35:57.652Z,29.09
2023-05-06T04:36:57.674Z,29.13
2023-05-06T04:37:57.726Z,29.11
2023-05-06T04:38:57.745Z,29.12
2023-05-06T04:39:57.781Z,29.12
2023-05-06T04:40:57.818Z,29.09
2023-05-06T04:41:58.034Z,29.13
2023-05-06T04:42:57.891Z,29.17
2023-05-06T04:43:57.927Z,29.16
2023-05-06T04:44:58.031Z,29.13
2023-05-06T04:45:58.038Z,29.09
2023-05-06T04:46:58.033Z,29.13
2023-05-06T04:47:58.163Z,29.17
2023-05-06T04:48:58.118Z,29.11
2023-05-06T04:49:58.142Z,29.11
2023-05-06T04:50:58.171Z,29.12
2023-05-06T04:51:58.215Z,29.13
2023-05-06T04:52:58.248Z,29.12
2023-05-06T04:53:58.283Z,29.16
2023-05-06T04:54:58.344Z,29.13
2023-05-06T04:55:58.381Z,29.12
2023-05-06T04:56:58.422Z,29.13
2023-05-06T04:57:58.451Z,29.12
2023-05-06T04:58:58.485Z,29.10
2023-05-06T04:59:58.525Z,29.12
2023-05-06T05:00:58.580Z,29.10
2023-05-06T05:01:58.592Z,29.11
2023-05-06T05:02:58.743Z,29.15
2023-05-06T05:03:58.662Z,29.13
2023-05-06T05:04:58.707Z,29.12
2023-05-06T05:05:58.716Z,29.09
2023-05-06T05:06:58.784Z,29.13
2023-05-06T05:07:58.790Z,29.15
2023-05-06T05:08:59.568Z,29.16
2023-05-06T05:09:58.858Z,29.12
2023-05-06T05:10:58.887Z,29.13
2023-05-06T05:11:58.926Z,29.16
2023-05-06T05:12:59.055Z,29.10
2023-05-06T05:14:01.039Z,29.16
2023-05-06T05:14:59.004Z,29.12
2023-05-06T05:15:59.046Z,29.09
2023-05-06T05:16:59.192Z,29.15
2023-05-06T05:17:59.142Z,29.16
2023-05-06T05:19:00.351Z,29.13
2023-05-06T05:19:59.179Z,29.16
2023-05-06T05:20:59.209Z,29.15
2023-05-06T05:21:59.243Z,29.15
2023-05-06T05:22:59.312Z,29.13
2023-05-06T05:23:59.327Z,29.15
2023-05-06T05:24:59.353Z,29.13
2023-05-06T05:25:59.361Z,29.13
2023-05-06T05:26:59.399Z,29.15
2023-05-06T05:27:59.428Z,29.16
2023-05-06T05:28:59.472Z,29.16
2023-05-06T05:29:59.494Z,29.15
2023-05-06T05:30:59.536Z,29.15
2023-05-06T05:31:59.571Z,29.16
2023-05-06T05:32:59.739Z,29.14
2023-05-06T05:33:59.639Z,29.17
2023-05-06T05:34:59.669Z,29.13
2023-05-06T05:35:59.683Z,29.15
2023-05-06T05:36:59.724Z,29.13
2023-05-06T05:37:59.779Z,29.20
2023-05-06T05:38:59.792Z,29.15
2023-05-06T05:39:59.839Z,29.20
2023-05-06T05:40:59.853Z,29.16
2023-05-06T05:41:59.891Z,29.19
2023-05-06T05:42:59.935Z,29.16
2023-05-06T05:43:59.964Z,29.16
2023-05-06T05:44:59.994Z,29.17
2023-05-06T05:46:00.154Z,29.13
2023-05-06T05:47:00.037Z,29.13
2023-05-06T05:48:00.123Z,29.19
2023-05-06T05:49:00.123Z,29.12
2023-05-06T05:50:00.205Z,29.19
2023-05-06T05:51:00.172Z,29.16
2023-05-06T05:52:00.281Z,29.16
2023-05-06T05:53:00.273Z,29.19
2023-05-06T05:54:00.264Z,29.14
2023-05-06T05:55:00.303Z,29.16
2023-05-06T05:56:00.357Z,29.13
2023-05-06T05:57:00.368Z,29.19
2023-05-06T05:58:00.408Z,29.16
2023-05-06T05:59:00.435Z,29.14
2023-05-06T06:00:00.465Z,29.16
2023-05-06T06:01:00.506Z,29.17
2023-05-06T06:02:00.620Z,29.12
2023-05-06T06:03:00.893Z,29.15
2023-05-06T06:04:00.788Z,29.14
2023-05-06T06:05:00.732Z,29.12
2023-05-06T06:06:00.678Z,29.17
2023-05-06T06:07:00.716Z,29.17
2023-05-06T06:08:03.531Z,29.14
2023-05-06T06:09:00.800Z,29.17
2023-05-06T06:10:00.832Z,29.20
2023-05-06T06:11:00.856Z,29.20
2023-05-06T06:12:00.882Z,29.15
2023-05-06T06:13:00.988Z,29.16
2023-05-06T06:14:00.979Z,29.19
2023-05-06T06:15:01.014Z,29.18
2023-05-06T06:16:01.063Z,29.17
2023-05-06T06:17:01.073Z,29.21
2023-05-06T06:18:01.221Z,29.16
2023-05-06T06:19:01.137Z,29.16
2023-05-06T06:20:01.200Z,29.14
2023-05-06T06:21:01.248Z,29.12
2023-05-06T06:22:01.241Z,29.15
2023-05-06T06:23:01.277Z,29.19
2023-05-06T06:24:01.307Z,29.12
2023-05-06T06:25:01.330Z,29.12
2023-05-06T06:26:01.360Z,29.10
2023-05-06T06:27:01.412Z,29.18
2023-05-06T06:28:01.434Z,29.17
2023-05-06T06:29:01.492Z,29.15
2023-05-06T06:30:01.509Z,29.17
2023-05-06T06:31:01.533Z,29.13
2023-05-06T06:32:01.599Z,29.14
2023-05-06T06:33:01.660Z,29.20
2023-05-06T06:34:01.739Z,29.25
2023-05-06T06:35:01.706Z,29.22
2023-05-06T06:36:01.676Z,29.18
2023-05-06T06:37:01.706Z,29.09
2023-05-06T06:38:01.740Z,29.09
2023-05-06T06:39:01.764Z,29.17
2023-05-06T06:40:01.790Z,29.16
2023-05-06T06:41:01.827Z,29.13
2023-05-06T06:42:01.855Z,29.08
2023-05-06T06:43:01.893Z,29.10
2023-05-06T06:44:01.912Z,29.12
2023-05-06T06:45:01.938Z,29.06
2023-05-06T06:46:02.078Z,29.10
2023-05-06T06:47:01.999Z,29.15
2023-05-06T06:48:02.097Z,29.10
2023-05-06T06:49:02.080Z,29.17
2023-05-06T06:50:02.272Z,29.16
2023-05-06T06:51:02.144Z,29.17
2023-05-06T06:52:02.176Z,29.20
2023-05-06T06:53:03.610Z,29.16
2023-05-06T06:54:02.426Z,29.14
2023-05-06T06:55:02.498Z,29.14
2023-05-06T06:56:02.630Z,29.17
2023-05-06T06:57:02.604Z,29.14
2023-05-06T06:58:02.645Z,29.16
2023-05-06T06:59:02.709Z,29.12
2023-05-06T07:00:02.756Z,29.18
2023-05-06T07:01:02.847Z,29.16
2023-05-06T07:02:02.821Z,29.20
2023-05-06T07:03:02.872Z,29.17
2023-05-06T07:04:04.246Z,29.18
2023-05-06T07:05:02.951Z,29.17
2023-05-06T07:06:03.094Z,29.21
2023-05-06T07:07:03.030Z,29.26
2023-05-06T07:08:03.089Z,29.22
2023-05-06T07:09:03.146Z,29.18
2023-05-06T07:10:03.169Z,29.23
2023-05-06T07:11:03.215Z,29.25
2023-05-06T07:12:03.239Z,29.17
2023-05-06T07:13:03.336Z,29.18
2023-05-06T07:14:03.282Z,29.26
2023-05-06T07:15:03.366Z,29.23
2023-05-06T07:16:03.414Z,29.17
2023-05-06T07:17:03.458Z,29.13
2023-05-06T07:18:03.560Z,29.16
2023-05-06T07:19:03.566Z,29.18
2023-05-06T07:20:03.638Z,29.20
2023-05-06T07:21:03.704Z,29.24
2023-05-06T07:22:03.833Z,29.17
2023-05-06T07:23:03.845Z,29.25
2023-05-06T07:24:03.871Z,29.24
2023-05-06T07:25:03.958Z,29.20
2023-05-06T07:26:03.982Z,29.23
2023-05-06T07:27:04.050Z,29.18
2023-05-06T07:28:04.091Z,29.20
2023-05-06T07:29:04.173Z,29.17
2023-05-06T07:30:04.226Z,29.17
2023-05-06T07:31:04.312Z,29.20
2023-05-06T07:32:04.368Z,29.19
2023-05-06T07:33:04.509Z,29.14
2023-05-06T07:34:04.468Z,29.12
2023-05-06T07:35:04.535Z,29.13
2023-05-06T07:36:04.599Z,29.11
2023-05-06T07:37:04.687Z,29.02
2023-05-06T07:38:04.868Z,28.95
2023-05-06T07:39:04.879Z,28.92
2023-05-06T07:40:04.979Z,28.94
2023-05-06T07:41:05.070Z,28.87
2023-05-06T07:42:05.162Z,28.90
2023-05-06T07:43:05.267Z,28.92
2023-05-06T07:44:05.367Z,28.92
2023-05-06T07:45:05.483Z,29.00
2023-05-06T07:46:05.575Z,28.88
2023-05-06T07:47:05.774Z,28.96
2023-05-06T07:48:05.748Z,28.92
2023-05-06T07:49:05.821Z,28.91
2023-05-06T07:50:05.945Z,28.92
2023-05-06T07:51:06.016Z,28.88
2023-05-06T07:52:06.104Z,28.91
2023-05-06T07:53:06.220Z,28.88
2023-05-06T07:54:06.319Z,28.86
2023-05-06T07:55:06.399Z,28.88
2023-05-06T07:56:06.482Z,28.87
2023-05-06T07:57:06.587Z,28.80
2023-05-06T07:58:06.757Z,28.86
2023-05-06T07:59:06.776Z,28.93
2023-05-06T08:00:06.832Z,28.92
2023-05-06T08:01:06.938Z,28.78
2023-05-06T08:02:07.035Z,28.77
2023-05-06T08:03:07.172Z,28.75
2023-05-06T08:04:07.271Z,28.68
2023-05-06T08:05:07.246Z,28.63
2023-05-06T08:06:07.320Z,28.55
2023-05-06T08:07:07.393Z,28.51
2023-05-06T08:08:07.478Z,28.52
2023-05-06T08:09:07.538Z,28.50
2023-05-06T08:10:07.618Z,28.49
2023-05-06T08:11:07.765Z,28.42
2023-05-06T08:12:07.751Z,28.37
2023-05-06T08:13:07.867Z,28.37
2023-05-06T08:14:07.868Z,28.33
2023-05-06T08:15:08.228Z,28.31
2023-05-06T08:16:08.020Z,28.25
2023-05-06T08:17:08.056Z,28.26
2023-05-06T08:18:20.888Z,28.23
2023-05-06T08:19:09.127Z,28.23
2023-05-06T08:20:08.142Z,28.20
2023-05-06T08:21:08.161Z,28.14
2023-05-06T08:22:08.179Z,28.13
2023-05-06T08:23:08.195Z,28.09
2023-05-06T08:24:08.224Z,28.05
2023-05-06T08:25:08.390Z,28.11
2023-05-06T08:26:08.296Z,28.04
2023-05-06T08:27:08.239Z,27.97
2023-05-06T08:28:08.257Z,27.95
2023-05-06T08:29:08.282Z,28.04
2023-05-06T08:30:08.285Z,28.08
2023-05-06T08:31:08.331Z,28.09
2023-05-06T08:32:08.375Z,28.15
2023-05-06T08:33:08.407Z,28.16
2023-05-06T08:34:08.351Z,28.09
2023-05-06T08:35:08.438Z,28.05
2023-05-06T08:36:08.360Z,28.20
2023-05-06T08:37:08.392Z,28.21
2023-05-06T08:38:08.439Z,28.26
2023-05-06T08:39:08.438Z,28.33
2023-05-06T08:40:08.426Z,28.27
2023-05-06T08:41:08.441Z,28.31
2023-05-06T08:42:08.553Z,28.28
2023-05-06T08:43:08.516Z,28.23
2023-05-06T08:44:08.510Z,28.20
2023-05-06T08:45:08.635Z,28.15
2023-05-06T08:46:08.566Z,28.11
2023-05-06T08:47:08.539Z,28.09
2023-05-06T08:48:08.577Z,28.04
2023-05-06T08:49:08.579Z,28.06
2023-05-06T08:50:08.593Z,28.02
2023-05-06T08:51:08.617Z,28.03
2023-05-06T08:52:08.623Z,28.00
2023-05-06T08:53:08.643Z,27.95
2023-05-06T08:54:08.653Z,27.93
2023-05-06T08:55:08.805Z,27.94
2023-05-06T08:56:08.772Z,27.97
2023-05-06T08:57:10.322Z,27.96
2023-05-06T08:58:08.758Z,27.96
2023-05-06T08:59:08.712Z,27.93
2023-05-06T09:00:08.711Z,27.93
2023-05-06T09:01:08.749Z,27.92
2023-05-06T09:02:08.815Z,27.85
2023-05-06T09:03:08.828Z,27.84
2023-05-06T09:04:08.742Z,27.80
2023-05-06T09:05:09.099Z,27.84
2023-05-06T09:06:08.769Z,27.81
2023-05-06T09:07:08.808Z,27.77
2023-05-06T09:08:08.785Z,27.76
2023-05-06T09:09:08.793Z,27.81
2023-05-06T09:10:08.965Z,27.81
2023-05-06T09:11:08.824Z,27.84
2023-05-06T09:12:08.836Z,27.86
2023-05-06T09:13:08.940Z,27.86
2023-05-06T09:14:08.884Z,27.90
2023-05-06T09:15:09.288Z,27.93
2023-05-06T09:16:08.892Z,27.98
2023-05-06T09:17:09.078Z,27.99
2023-05-06T09:18:08.963Z,28.01
2023-05-06T09:19:08.953Z,28.03
2023-05-06T09:20:08.935Z,28.04
2023-05-06T09:21:08.954Z,28.01
2023-05-06T09:22:08.970Z,28.06
2023-05-06T09:23:08.974Z,28.08
2023-05-06T09:24:08.990Z,28.14
2023-05-06T09:25:09.084Z,28.15
2023-05-06T09:26:09.019Z,28.18
2023-05-06T09:27:10.901Z,28.18
2023-05-06T09:28:09.109Z,28.19
2023-05-06T09:29:09.188Z,28.21
2023-05-06T09:30:09.306Z,28.25
2023-05-06T09:31:09.294Z,28.28
2023-05-06T09:32:09.264Z,28.25
2023-05-06T09:33:09.448Z,28.28
2023-05-06T09:34:09.351Z,28.32
2023-05-06T09:35:09.681Z,28.37
2023-05-06T09:36:09.429Z,28.35
2023-05-06T09:37:09.475Z,28.35
2023-05-06T09:38:09.539Z,28.37
2023-05-06T09:39:09.560Z,28.39
2023-05-06T09:40:09.548Z,28.39
2023-05-06T09:41:09.621Z,28.41
2023-05-06T09:42:09.601Z,28.38
2023-05-06T09:43:09.591Z,28.39
2023-05-06T09:44:09.610Z,28.35
2023-05-06T09:45:09.896Z,28.38
2023-05-06T09:46:09.664Z,28.35
2023-05-06T09:47:09.676Z,28.36
2023-05-06T09:48:09.802Z,28.38
2023-05-06T09:49:09.690Z,28.43
2023-05-06T09:50:09.698Z,28.39
2023-05-06T09:51:09.705Z,28.37
2023-05-06T09:52:09.737Z,28.41
2023-05-06T09:53:09.744Z,28.39
2023-05-06T09:54:09.785Z,28.38
2023-05-06T09:55:10.125Z,28.39
2023-05-06T09:56:09.799Z,28.40
2023-05-06T09:57:09.812Z,28.41
2023-05-06T09:58:09.881Z,28.39
2023-05-06T09:59:09.914Z,28.39
2023-05-06T10:00:09.888Z,28.39
2023-05-06T10:01:09.954Z,28.37
2023-05-06T10:02:10.126Z,28.40
2023-05-06T10:03:10.118Z,28.43
2023-05-06T10:04:10.409Z,28.43
2023-05-06T10:05:10.502Z,28.41
2023-05-06T10:06:10.173Z,28.43
2023-05-06T10:07:10.309Z,28.44
2023-05-06T10:08:10.274Z,28.54
2023-05-06T10:09:10.322Z,28.48
2023-05-06T10:10:10.375Z,28.50
2023-05-06T10:11:10.416Z,28.48
2023-05-06T10:12:10.493Z,28.52
2023-05-06T10:13:10.607Z,28.49
2023-05-06T10:14:10.565Z,28.52
2023-05-06T10:15:10.837Z,28.49
2023-05-06T10:16:10.694Z,28.51
2023-05-06T10:17:10.709Z,28.51
2023-05-06T10:18:10.810Z,28.55
2023-05-06T10:19:10.843Z,28.56
2023-05-06T10:20:10.876Z,28.55
2023-05-06T10:21:10.918Z,28.61
2023-05-06T10:22:11.002Z,28.55
2023-05-06T10:23:11.052Z,28.55
2023-05-06T10:24:11.100Z,28.58
2023-05-06T10:25:11.409Z,28.54
2023-05-06T10:26:11.199Z,28.57
2023-05-06T10:27:11.262Z,28.63
2023-05-06T10:28:16.676Z,28.64
2023-05-06T10:29:12.330Z,28.65
2023-05-06T10:30:11.369Z,28.62
2023-05-06T10:31:11.395Z,28.63
2023-05-06T10:32:11.380Z,28.66
2023-05-06T10:33:11.421Z,28.69
2023-05-06T10:34:11.463Z,28.66
2023-05-06T10:35:11.674Z,28.69
2023-05-06T10:36:11.480Z,28.68
2023-05-06T10:37:11.492Z,28.68
2023-05-06T10:38:11.511Z,28.68
2023-05-06T10:39:11.548Z,28.67
2023-05-06T10:40:11.556Z,28.71
2023-05-06T10:41:11.585Z,28.73
2023-05-06T10:42:11.621Z,28.73
2023-05-06T10:43:11.643Z,28.79
2023-05-06T10:44:11.694Z,28.78
2023-05-06T10:45:12.003Z,28.75
2023-05-06T10:46:11.889Z,28.76
2023-05-06T10:47:11.873Z,28.75
2023-05-06T10:48:11.933Z,28.75
2023-05-06T10:49:11.982Z,28.75
2023-05-06T10:50:12.101Z,28.75
2023-05-06T10:51:12.090Z,28.78
2023-05-06T10:52:12.151Z,28.76
2023-05-06T10:53:12.148Z,28.76
2023-05-06T10:54:12.166Z,28.74
2023-05-06T10:55:12.444Z,28.78
2023-05-06T10:56:12.228Z,28.76
2023-05-06T10:57:12.236Z,28.76
2023-05-06T10:58:12.266Z,28.78
2023-05-06T10:59:12.286Z,28.77
2023-05-06T11:00:12.301Z,28.80
2023-05-06T11:01:12.336Z,28.77
2023-05-06T11:02:12.365Z,28.81
2023-05-06T11:03:12.484Z,28.79
2023-05-06T11:04:12.395Z,28.75
2023-05-06T11:05:12.595Z,28.78
2023-05-06T11:06:12.456Z,28.74
2023-05-06T11:07:12.530Z,28.68
2023-05-06T11:08:12.557Z,28.70
2023-05-06T11:09:12.634Z,28.67
2023-05-06T11:10:12.660Z,28.62
2023-05-06T11:11:12.724Z,28.55
2023-05-06T11:12:12.765Z,28.54
2023-05-06T11:13:12.848Z,28.52
2023-05-06T11:14:12.886Z,28.52
2023-05-06T11:15:12.889Z,28.49
2023-05-06T11:16:12.972Z,28.46
2023-05-06T11:17:13.096Z,28.55
2023-05-06T11:18:13.018Z,28.50
2023-05-06T11:19:13.065Z,28.52
2023-05-06T11:20:13.121Z,28.53
2023-05-06T11:21:13.153Z,28.47
2023-05-06T11:22:13.269Z,28.45
2023-05-06T11:23:13.225Z,28.50
2023-05-06T11:24:13.267Z,28.50
2023-05-06T11:25:13.309Z,28.39
2023-05-06T11:26:13.375Z,28.48
2023-05-06T11:27:13.404Z,28.43
2023-05-06T11:28:13.451Z,28.44
2023-05-06T11:29:13.488Z,28.45
2023-05-06T11:30:13.566Z,28.45
2023-05-06T11:31:13.617Z,28.45
2023-05-06T11:32:13.603Z,28.42
2023-05-06T11:33:13.613Z,28.41
2023-05-06T11:34:13.656Z,28.43
2023-05-06T11:35:13.633Z,28.45
2023-05-06T11:36:13.651Z,28.41
2023-05-06T11:37:13.675Z,28.41
2023-05-06T11:38:13.760Z,28.42
2023-05-06T11:39:13.701Z,28.35
2023-05-06T11:40:13.771Z,28.38
2023-05-06T11:41:13.732Z,28.38
2023-05-06T11:42:13.754Z,28.45
2023-05-06T11:43:13.771Z,28.41
2023-05-06T11:44:13.780Z,28.38
2023-05-06T11:45:13.807Z,28.43
2023-05-06T11:46:13.856Z,28.39
2023-05-06T11:47:13.825Z,28.46
2023-05-06T11:48:13.898Z,28.49
2023-05-06T11:49:13.846Z,28.46
2023-05-06T11:50:13.926Z,28.44
2023-05-06T11:51:13.894Z,28.54
2023-05-06T11:52:13.899Z,28.47
2023-05-06T11:53:13.917Z,28.50
2023-05-06T11:54:14.021Z,28.44
2023-05-06T11:55:13.990Z,28.46
2023-05-06T11:56:14.028Z,28.41
2023-05-06T11:57:14.075Z,28.43
2023-05-06T11:58:14.104Z,28.45
2023-05-06T11:59:14.144Z,28.45
2023-05-06T12:00:14.186Z,28.42
2023-05-06T12:01:14.210Z,28.37
2023-05-06T12:02:14.322Z,28.33
2023-05-06T12:03:14.444Z,28.33
2023-05-06T12:04:14.466Z,28.29
2023-05-06T12:05:14.381Z,28.29
2023-05-06T12:06:14.426Z,28.30
2023-05-06T12:07:14.458Z,28.27
2023-05-06T12:08:26.733Z,28.26
2023-05-06T12:09:15.589Z,28.30
2023-05-06T12:10:14.569Z,28.30
2023-05-06T12:11:14.534Z,28.38
2023-05-06T12:12:14.567Z,28.31
2023-05-06T12:13:14.617Z,28.27
2023-05-06T12:14:14.609Z,28.30
2023-05-06T12:15:14.631Z,28.25
2023-05-06T12:16:14.691Z,28.27
2023-05-06T12:17:14.650Z,28.22
2023-05-06T12:18:14.685Z,28.27
2023-05-06T12:19:14.700Z,28.23
2023-05-06T12:20:14.753Z,28.25
2023-05-06T12:21:14.708Z,28.24
2023-05-06T12:22:14.771Z,28.25
2023-05-06T12:23:14.752Z,28.25
2023-05-06T12:24:14.785Z,28.28
2023-05-06T12:25:14.860Z,28.27
2023-05-06T12:26:14.771Z,28.27
2023-05-06T12:27:14.791Z,28.32
2023-05-06T12:28:14.808Z,28.28
2023-05-06T12:29:14.838Z,28.25
2023-05-06T12:30:14.855Z,28.24
2023-05-06T12:31:14.891Z,28.25
2023-05-06T12:32:14.884Z,28.25
2023-05-06T12:33:14.915Z,28.24
2023-05-06T12:34:14.934Z,28.25
2023-05-06T12:35:14.954Z,28.16
2023-05-06T12:36:14.950Z,28.19
2023-05-06T12:37:14.962Z,28.19
2023-05-06T12:38:14.987Z,28.22
2023-05-06T12:39:15.024Z,28.17
2023-05-06T12:40:15.028Z,28.18
2023-05-06T12:41:15.108Z,28.15
2023-05-06T12:42:15.067Z,28.14
2023-05-06T12:43:15.076Z,28.12
2023-05-06T12:44:15.103Z,28.14
2023-05-06T12:45:15.114Z,28.11
2023-05-06T12:46:15.180Z,28.14
2023-05-06T12:47:15.171Z,28.11
2023-05-06T12:48:15.183Z,28.09
2023-05-06T12:49:15.177Z,28.09
2023-05-06T12:50:15.188Z,28.11
2023-05-06T12:51:15.208Z,28.09
2023-05-06T12:52:15.225Z,28.10
2023-05-06T12:53:15.225Z,28.06